createdAt,value
2023-05-30T00:00:10.510Z,21.20
2023-05-30T00:02:39.637Z,21.52
2023-05-30T00:05:09.192Z,21.95
2023-05-30T00:07:42.364Z,22.41
2023-05-30T00:10:11.935Z,22.76
2023-05-30T00:12:44.159Z,23.00
2023-05-30T00:15:36.270Z,23.33
2023-05-30T00:18:08.857Z,23.81
2023-05-30T00:21:34.693Z,24.14
2023-05-30T00:24:32.688Z,24.33
2023-05-30T00:28:00.846Z,24.58
2023-05-30T00:31:12.398Z,24.97
2023-05-30T00:34:09.913Z,25.25
2023-05-30T00:37:46.364Z,25.50
2023-05-30T00:41:28.117Z,25.61
2023-05-30T00:45:02.543Z,25.59
2023-05-30T00:48:39.607Z,25.80
2023-05-30T00:52:12.455Z,25.84
2023-05-30T00:55:19.123Z,25.77
2023-05-30T00:58:11.725Z,25.42
2023-05-30T01:00:44.963Z,25.20
2023-05-30T01:03:14.403Z,25.08
2023-05-30T01:05:46.832Z,24.95
2023-05-30T01:08:21.321Z,24.74
2023-05-30T01:10:58.827Z,24.51
2023-05-30T01:14:04.747Z,24.41
2023-05-30T01:16:56.983Z,24.21
2023-05-30T01:19:48.808Z,24.06
2023-05-30T01:22:47.066Z,23.76
2023-05-30T01:25:40.765Z,23.65
2023-05-30T01:28:20.699Z,23.36
2023-05-30T01:30:54.918Z,23.18
2023-05-30T01:33:25.868Z,23.09
2023-05-30T01:35:58.070Z,22.98
2023-05-30T01:38:27.240Z,22.92
2023-05-30T01:41:01.212Z,22.78
2023-05-30T01:43:53.806Z,22.69
2023-05-30T01:46:33.969Z,22.59
2023-05-30T01:49:56.120Z,22.50
2023-05-30T01:52:33.732Z,22.43
2023-05-30T01:55:08.146Z,22.28
2023-05-30T01:58:00.812Z,22.21
2023-05-30T02:00:33.206Z,22.07
2023-05-30T02:03:04.639Z,21.97
2023-05-30T02:05:34.312Z,21.78
2023-05-30T02:08:03.490Z,21.58
2023-05-30T02:10:32.720Z,21.41
2023-05-30T02:13:02.027Z,21.16
2023-05-30T02:15:31.021Z,20.90
2023-05-30T02:18:01.726Z,20.76
2023-05-30T02:20:30.640Z,20.63
2023-05-30T02:22:59.885Z,20.49
2023-05-30T02:25:29.371Z,20.42
2023-05-30T02:28:01.226Z,20.38
2023-05-30T02:30:30.821Z,20.33
2023-05-30T02:33:00.365Z,20.26
2023-05-30T02:35:29.717Z,20.12
2023-05-30T02:37:58.878Z,19.99
2023-05-30T02:40:31.209Z,19.89
2023-05-30T02:43:06.494Z,19.76
2023-05-30T02:45:42.789Z,19.65
2023-05-30T02:48:12.266Z,19.61
2023-05-30T02:50:47.570Z,19.55
2023-05-30T02:53:19.838Z,19.52
2023-05-30T02:55:52.612Z,19.44
2023-05-30T02:58:24.887Z,19.36
2023-05-30T03:00:54.260Z,19.22
2023-05-30T03:03:26.198Z,19.10
2023-05-30T03:05:55.838Z,19.03
2023-05-30T03:08:26.511Z,18.91
2023-05-30T03:10:59.499Z,18.89
2023-05-30T03:13:32.044Z,18.89
2023-05-30T03:19:48.863Z,18.83
2023-05-30T03:22:19.206Z,18.69
2023-05-30T03:24:53.114Z,18.67
2023-05-30T03:27:22.909Z,18.64
2023-05-30T03:29:54.302Z,18.62
2023-05-30T03:32:23.405Z,18.58
2023-05-30T03:34:56.454Z,18.54
2023-05-30T03:37:29.937Z,18.49
2023-05-30T03:40:16.981Z,18.43
2023-05-30T03:42:47.307Z,18.38
2023-05-30T03:45:18.035Z,18.32
2023-05-30T03:47:46.919Z,18.25
2023-05-30T03:50:16.550Z,18.18
2023-05-30T03:53:03.413Z,18.10
2023-05-30T03:55:33.347Z,18.07
2023-05-30T03:58:03.563Z,18.03
2023-05-30T04:00:33.045Z,17.97
2023-05-30T04:03:02.606Z,17.90
2023-05-30T04:05:34.837Z,17.84
2023-05-30T04:08:04.169Z,17.79
2023-05-30T04:10:33.657Z,17.72
2023-05-30T04:13:03.418Z,17.67
2023-05-30T04:15:32.701Z,17.64
2023-05-30T04:18:03.765Z,17.60
2023-05-30T04:20:42.602Z,17.53
2023-05-30T04:23:12.667Z,17.46
2023-05-30T04:25:42.601Z,17.42
2023-05-30T04:28:11.849Z,17.37
2023-05-30T04:30:44.220Z,17.33
2023-05-30T04:33:14.814Z,17.26
2023-05-30T04:35:45.236Z,17.20
2023-05-30T04:38:22.359Z,17.16
2023-05-30T04:40:58.268Z,17.11
2023-05-30T04:43:34.124Z,17.05
2023-05-30T04:46:11.358Z,16.98
2023-05-30T04:48:47.569Z,16.94
2023-05-30T04:51:22.909Z,16.88
2023-05-30T04:53:54.030Z,16.81
2023-05-30T04:56:23.763Z,16.72
2023-05-30T04:58:56.295Z,16.59
2023-05-30T05:01:30.025Z,16.47
2023-05-30T05:04:06.179Z,16.32
2023-05-30T05:06:40.246Z,16.15
2023-05-30T05:09:12.488Z,16.09
2023-05-30T05:11:46.795Z,16.08
2023-05-30T05:14:19.754Z,16.03
2023-05-30T05:16:52.011Z,15.99
2023-05-30T05:19:21.919Z,15.96
2023-05-30T05:21:51.812Z,15.93
2023-05-30T05:24:21.241Z,15.86
2023-05-30T05:26:51.463Z,15.81
2023-05-30T05:29:20.689Z,15.73
2023-05-30T05:35:00.660Z,15.53
2023-05-30T05:37:29.968Z,15.46
2023-05-30T05:40:00.350Z,15.43
2023-05-30T05:42:29.481Z,15.37
2023-05-30T05:44:58.767Z,15.30
2023-05-30T05:47:28.669Z,15.26
2023-05-30T05:49:58.152Z,15.26
2023-05-30T05:52:28.265Z,15.11
2023-05-30T05:54:57.642Z,15.01
2023-05-30T05:57:26.975Z,14.95
2023-05-30T05:59:56.430Z,14.87
2023-05-30T06:02:26.071Z,14.80
2023-05-30T06:04:56.374Z,14.68
2023-05-30T06:07:26.115Z,14.58
2023-05-30T06:09:55.645Z,14.55
2023-05-30T06:15:02.602Z,14.42
2023-05-30T06:17:32.527Z,14.36
2023-05-30T06:20:02.056Z,14.24
2023-05-30T06:22:34.388Z,14.20
2023-05-30T06:25:03.886Z,14.16
2023-05-30T06:27:33.302Z,14.11
2023-05-30T06:30:03.007Z,14.08
2023-05-30T06:32:32.885Z,14.06
2023-05-30T06:35:03.029Z,13.95
2023-05-30T06:37:32.122Z,13.84
2023-05-30T06:40:01.308Z,13.79
2023-05-30T06:42:30.585Z,13.78
2023-05-30T06:44:59.707Z,13.76
2023-05-30T06:47:28.834Z,13.72
2023-05-30T06:49:58.255Z,13.70
2023-05-30T06:52:27.559Z,13.67
2023-05-30T06:54:57.134Z,13.63
2023-05-30T06:57:27.778Z,13.56
2023-05-30T06:59:57.285Z,13.52
2023-05-30T07:02:26.681Z,13.47
2023-05-30T07:04:56.099Z,13.42
2023-05-30T07:07:25.717Z,13.41
2023-05-30T07:09:55.085Z,13.35
2023-05-30T07:12:26.197Z,13.30
2023-05-30T07:14:58.097Z,13.27
2023-05-30T07:17:27.653Z,13.21
2023-05-30T07:19:57.431Z,13.14
2023-05-30T07:22:26.874Z,13.12
2023-05-30T07:24:56.047Z,13.07
2023-05-30T07:27:25.797Z,13.04
2023-05-30T07:29:57.216Z,13.00
2023-05-30T07:32:27.135Z,12.97
2023-05-30T07:35:00.304Z,12.93
2023-05-30T07:37:29.766Z,12.88
2023-05-30T07:39:59.603Z,12.84
2023-05-30T07:42:46.853Z,12.79
2023-05-30T07:45:17.903Z,12.76
2023-05-30T07:47:47.738Z,12.70
2023-05-30T07:50:18.426Z,12.65
2023-05-30T07:52:48.029Z,12.63
2023-05-30T07:55:17.143Z,12.59
2023-05-30T07:57:46.591Z,12.52
2023-05-30T08:00:17.064Z,12.48
2023-05-30T08:02:47.745Z,12.36
2023-05-30T08:05:17.802Z,12.26
2023-05-30T08:07:48.528Z,12.22
2023-05-30T08:10:19.846Z,12.20
2023-05-30T08:12:52.015Z,12.17
2023-05-30T08:15:21.506Z,12.09
2023-05-30T08:17:51.366Z,12.02
2023-05-30T08:20:21.044Z,11.98
2023-05-30T08:22:50.584Z,11.93
2023-05-30T08:25:24.047Z,11.87
2023-05-30T08:27:55.456Z,11.83
2023-05-30T08:30:24.873Z,11.75
2023-05-30T08:32:54.723Z,11.66
2023-05-30T08:35:24.713Z,11.64
2023-05-30T08:40:47.873Z,11.55
2023-05-30T08:43:17.376Z,11.54
2023-05-30T08:45:47.165Z,11.52
2023-05-30T08:48:21.889Z,11.50
2023-05-30T08:50:53.126Z,11.45
2023-05-30T08:54:02.917Z,11.40
2023-05-30T09:05:57.344Z,11.31
2023-05-30T09:08:28.246Z,11.28
2023-05-30T09:11:02.193Z,11.27
2023-05-30T09:13:31.849Z,11.24
2023-05-30T09:16:03.996Z,11.19
2023-05-30T09:18:37.405Z,11.14
2023-05-30T09:21:07.576Z,11.10
2023-05-30T09:23:39.725Z,11.06
2023-05-30T09:26:15.675Z,11.03
2023-05-30T09:28:50.390Z,11.02
2023-05-30T09:31:19.321Z,11.00
2023-05-30T09:33:49.075Z,10.99
2023-05-30T09:38:36.724Z,10.94
2023-05-30T09:41:06.733Z,10.86
2023-05-30T09:45:51.793Z,10.73
2023-05-30T09:48:23.248Z,10.71
2023-05-30T09:50:56.059Z,10.71
2023-05-30T09:53:28.909Z,10.68
2023-05-30T09:55:58.621Z,10.66
2023-05-30T09:58:28.126Z,10.61
2023-05-30T10:01:00.280Z,10.53
2023-05-30T10:03:46.962Z,10.49
2023-05-30T10:08:53.064Z,10.44
2023-05-30T10:11:22.709Z,10.44
2023-05-30T10:13:52.258Z,10.42
2023-05-30T10:16:23.688Z,10.37
2023-05-30T10:19:02.770Z,10.35
2023-05-30T10:21:39.483Z,10.32
2023-05-30T10:24:13.688Z,10.22
2023-05-30T10:27:06.501Z,10.16
2023-05-30T10:30:01.027Z,10.16
2023-05-30T10:33:11.824Z,10.16
2023-05-30T10:35:41.512Z,10.14
2023-05-30T10:38:13.844Z,10.10
2023-05-30T10:41:04.456Z,10.06
2023-05-30T10:43:57.821Z,10.04
2023-05-30T10:47:17.307Z,10.02
2023-05-30T10:49:51.958Z,9.97
2023-05-30T10:52:34.289Z,9.94
2023-05-30T10:55:09.162Z,9.93
2023-05-30T10:57:38.904Z,9.88
2023-05-30T11:00:31.874Z,9.84
2023-05-30T11:03:03.346Z,9.79
2023-05-30T11:05:36.784Z,9.74
2023-05-30T11:08:06.218Z,9.70
2023-05-30T11:10:37.864Z,9.68
2023-05-30T11:13:14.137Z,9.66
2023-05-30T11:15:48.504Z,9.63
2023-05-30T11:18:23.570Z,9.56
2023-05-30T11:20:58.434Z,9.47
2023-05-30T11:23:29.565Z,9.39
2023-05-30T11:26:00.973Z,9.38
2023-05-30T11:28:39.286Z,9.37
2023-05-30T11:31:21.949Z,9.35
2023-05-30T11:33:54.080Z,9.33
2023-05-30T11:36:23.812Z,9.32
2023-05-30T11:38:54.978Z,9.33
2023-05-30T11:41:25.679Z,9.31
2023-05-30T11:43:55.073Z,9.29
2023-05-30T11:46:24.449Z,9.27
2023-05-30T11:49:02.492Z,9.22
2023-05-30T11:51:32.833Z,9.22
2023-05-30T11:54:04.045Z,9.16
2023-05-30T11:56:33.635Z,9.09
2023-05-30T11:59:03.126Z,9.04
2023-05-30T12:01:32.979Z,9.04
2023-05-30T12:04:02.471Z,9.08
2023-05-30T12:06:34.228Z,9.09
2023-05-30T12:09:03.638Z,9.10
2023-05-30T12:11:32.986Z,9.10
2023-05-30T12:14:05.490Z,9.08
2023-05-30T12:16:35.720Z,9.09
2023-05-30T12:19:06.630Z,9.12
2023-05-30T12:21:39.271Z,9.05
2023-05-30T12:24:14.055Z,9.00
2023-05-30T12:26:55.803Z,9.01
2023-05-30T12:29:29.660Z,9.03
2023-05-30T12:31:58.880Z,9.10
2023-05-30T12:36:42.471Z,9.27
2023-05-30T12:39:11.922Z,9.37
2023-05-30T12:41:43.142Z,9.39
2023-05-30T12:44:19.862Z,9.41
2023-05-30T12:46:49.627Z,9.48
2023-05-30T12:49:19.055Z,9.58
2023-05-30T12:52:03.529Z,9.60
2023-05-30T12:55:26.544Z,9.64
2023-05-30T12:58:00.484Z,9.68
2023-05-30T13:00:35.422Z,9.68
2023-05-30T13:03:07.988Z,9.69
2023-05-30T13:05:38.455Z,9.68
2023-05-30T13:08:07.882Z,9.71
2023-05-30T13:10:38.587Z,9.73
2023-05-30T13:13:11.676Z,9.72
2023-05-30T13:15:40.911Z,9.70
2023-05-30T13:18:10.505Z,9.67
2023-05-30T13:20:39.776Z,9.67
2023-05-30T13:23:09.195Z,9.68
2023-05-30T13:25:38.183Z,9.69
2023-05-30T13:28:07.864Z,9.69
2023-05-30T13:30:37.451Z,9.71
2023-05-30T13:35:44.301Z,9.68
2023-05-30T13:38:13.876Z,9.67
2023-05-30T13:40:43.262Z,9.69
2023-05-30T13:43:13.099Z,9.66
2023-05-30T13:45:51.424Z,9.65
2023-05-30T13:48:24.139Z,9.68
2023-05-30T13:50:53.857Z,9.72
2023-05-30T13:53:30.173Z,9.75
2023-05-30T13:56:05.639Z,9.79
2023-05-30T13:58:36.995Z,9.80
2023-05-30T14:01:06.633Z,9.86
2023-05-30T14:03:40.288Z,9.97
2023-05-30T14:07:34.269Z,10.14
2023-05-30T14:10:03.579Z,10.23
2023-05-30T14:12:33.210Z,10.29
2023-05-30T14:15:06.094Z,10.31
2023-05-30T14:17:35.709Z,10.35
2023-05-30T14:20:06.577Z,10.38
2023-05-30T14:22:36.170Z,10.42
2023-05-30T14:25:05.688Z,10.46
2023-05-30T14:27:35.872Z,10.52
2023-05-30T14:30:06.356Z,10.56
2023-05-30T14:32:35.996Z,10.62
2023-05-30T14:35:05.804Z,10.66
2023-05-30T14:37:35.496Z,10.69
2023-05-30T14:40:06.697Z,10.74
2023-05-30T14:42:37.318Z,10.79
2023-05-30T14:45:07.923Z,10.85
2023-05-30T14:47:37.782Z,10.92
2023-05-30T14:50:08.169Z,10.97
2023-05-30T14:52:44.330Z,11.03
2023-05-30T14:55:14.718Z,11.11
2023-05-30T14:57:43.966Z,11.18
2023-05-30T15:00:14.075Z,11.25
2023-05-30T15:02:44.107Z,11.32
2023-05-30T15:05:13.994Z,11.40
2023-05-30T15:07:43.194Z,11.48
2023-05-30T15:10:12.814Z,11.57
2023-05-30T15:12:44.337Z,11.64
2023-05-30T15:15:14.233Z,11.73
2023-05-30T15:17:44.013Z,11.82
2023-05-30T15:20:13.378Z,11.93
2023-05-30T15:22:45.800Z,12.03
2023-05-30T15:25:15.850Z,12.15
2023-05-30T15:27:45.092Z,12.25
2023-05-30T15:30:14.699Z,12.36
2023-05-30T15:32:44.292Z,12.47
2023-05-30T15:35:14.121Z,12.53
2023-05-30T15:37:43.585Z,12.62
2023-05-30T15:40:14.824Z,12.74
2023-05-30T15:42:44.049Z,12.85
2023-05-30T15:45:14.552Z,12.98
2023-05-30T15:47:44.938Z,13.09
2023-05-30T15:50:16.018Z,13.20
2023-05-30T15:52:45.799Z,13.31
2023-05-30T15:55:15.959Z,13.42
2023-05-30T15:58:05.754Z,13.49
2023-05-30T16:00:38.921Z,13.63
2023-05-30T16:03:08.289Z,13.73
2023-05-30T16:05:37.598Z,13.82
2023-05-30T16:08:07.343Z,13.90
2023-05-30T16:10:38.633Z,13.98
2023-05-30T16:13:08.634Z,14.05
2023-05-30T16:15:38.679Z,14.10
2023-05-30T16:18:09.356Z,14.18
2023-05-30T16:20:40.599Z,14.25
2023-05-30T16:23:09.877Z,14.33
2023-05-30T16:25:39.341Z,14.42
2023-05-30T16:28:08.659Z,14.50
2023-05-30T16:30:49.641Z,14.60
2023-05-30T16:36:09.602Z,14.80
2023-05-30T16:38:42.946Z,14.91
2023-05-30T16:41:14.019Z,15.00
2023-05-30T16:43:44.355Z,15.09
2023-05-30T16:46:19.380Z,15.19
2023-05-30T16:49:05.844Z,15.31
2023-05-30T16:51:35.468Z,15.42
2023-05-30T16:54:06.039Z,15.53
2023-05-30T16:56:36.774Z,15.65
2023-05-30T16:59:07.301Z,15.74
2023-05-30T17:01:37.687Z,15.79
2023-05-30T17:04:08.399Z,15.81
2023-05-30T17:06:38.782Z,15.79
2023-05-30T17:09:10.025Z,15.47
2023-05-30T17:11:40.248Z,15.16
2023-05-30T17:14:09.936Z,15.02
2023-05-30T17:16:40.497Z,14.97
2023-05-30T17:19:17.620Z,14.96
2023-05-30T17:21:58.137Z,14.99
2023-05-30T17:24:27.912Z,15.02
2023-05-30T17:26:57.121Z,15.06
2023-05-30T17:29:26.837Z,15.10
2023-05-30T17:31:56.947Z,15.13
2023-05-30T17:34:27.994Z,15.14
2023-05-30T17:36:57.493Z,15.17
2023-05-30T17:39:27.060Z,15.21
2023-05-30T17:44:17.347Z,15.30
2023-05-30T17:46:47.127Z,15.33
2023-05-30T17:49:16.530Z,15.39
2023-05-30T17:51:46.146Z,15.44
2023-05-30T17:54:18.589Z,15.54
2023-05-30T17:56:47.597Z,15.62
2023-05-30T17:59:17.024Z,15.69
2023-05-30T18:01:46.361Z,15.76
2023-05-30T18:04:15.667Z,15.88
2023-05-30T18:06:47.880Z,16.03
2023-05-30T18:11:39.932Z,16.38
2023-05-30T18:14:09.095Z,16.52
2023-05-30T18:16:38.439Z,16.67
2023-05-30T18:19:07.598Z,16.77
2023-05-30T18:21:37.191Z,16.87
2023-05-30T18:24:07.094Z,16.94
2023-05-30T18:26:37.185Z,16.96
2023-05-30T18:29:06.981Z,16.60
2023-05-30T18:31:37.918Z,16.29
2023-05-30T18:34:08.056Z,16.08
2023-05-30T18:36:37.390Z,16.00
2023-05-30T18:39:07.261Z,16.02
2023-05-30T18:41:36.589Z,16.04
2023-05-30T18:44:08.059Z,16.06
2023-05-30T18:46:38.525Z,16.06
2023-05-30T18:49:07.773Z,16.04
2023-05-30T18:51:37.808Z,16.04
2023-05-30T18:54:11.660Z,16.04
2023-05-30T18:56:40.728Z,16.01
2023-05-30T18:59:10.245Z,15.95
2023-05-30T19:01:39.596Z,15.90
2023-05-30T19:04:10.868Z,15.87
2023-05-30T19:06:40.158Z,15.92
2023-05-30T19:09:09.585Z,16.01
2023-05-30T19:11:39.349Z,16.14
2023-05-30T19:14:08.999Z,16.26
2023-05-30T19:16:38.358Z,16.36
2023-05-30T19:19:07.754Z,16.46
2023-05-30T19:21:42.347Z,16.55
2023-05-30T19:24:11.834Z,16.66
2023-05-30T19:26:41.189Z,16.80
2023-05-30T19:29:10.534Z,16.95
2023-05-30T19:31:39.814Z,17.07
2023-05-30T19:34:08.984Z,17.16
2023-05-30T19:36:38.826Z,17.24
2023-05-30T19:39:08.124Z,17.34
2023-05-30T19:41:38.460Z,17.42
2023-05-30T19:46:32.832Z,17.57
2023-05-30T19:49:02.255Z,17.66
2023-05-30T19:51:32.160Z,17.75
2023-05-30T19:54:02.930Z,17.92
2023-05-30T19:56:32.152Z,18.03
2023-05-30T19:59:01.601Z,18.12
2023-05-30T20:01:31.303Z,18.25
2023-05-30T20:04:02.985Z,18.38
2023-05-30T20:06:35.371Z,18.52
2023-05-30T20:09:04.835Z,18.72
2023-05-30T20:11:34.008Z,18.94
2023-05-30T20:14:03.576Z,19.09
2023-05-30T20:16:33.453Z,19.14
2023-05-30T20:19:03.688Z,19.15
2023-05-30T20:21:33.133Z,19.07
2023-05-30T20:24:02.690Z,18.84
2023-05-30T20:26:33.394Z,18.45
2023-05-30T20:29:03.207Z,17.81
2023-05-30T20:31:32.471Z,17.08
2023-05-30T20:34:01.950Z,16.66
2023-05-30T20:36:31.423Z,16.41
2023-05-30T20:39:00.929Z,16.19
2023-05-30T20:41:30.658Z,16.06
2023-05-30T20:44:00.039Z,16.03
2023-05-30T20:46:29.293Z,16.08
2023-05-30T20:48:58.471Z,16.28
2023-05-30T20:51:27.846Z,16.61
2023-05-30T20:53:57.547Z,16.86
2023-05-30T20:56:27.862Z,17.06
2023-05-30T20:58:57.154Z,17.28
2023-05-30T21:01:26.984Z,17.43
2023-05-30T21:06:16.237Z,17.88
2023-05-30T21:08:45.682Z,18.13
2023-05-30T21:11:14.824Z,18.32
2023-05-30T21:13:47.265Z,18.53
2023-05-30T21:16:17.516Z,18.80
2023-05-30T21:18:47.064Z,19.10
2023-05-30T21:21:17.009Z,19.41
2023-05-30T21:23:46.007Z,19.67
2023-05-30T21:26:15.082Z,19.93
2023-05-30T21:28:44.284Z,20.23
2023-05-30T21:31:14.314Z,20.52
2023-05-30T21:33:43.948Z,20.79
2023-05-30T21:36:13.947Z,20.95
2023-05-30T21:38:43.860Z,20.97
2023-05-30T21:41:13.543Z,20.86
2023-05-30T21:43:43.634Z,20.49
2023-05-30T21:46:13.828Z,19.61
2023-05-30T21:48:43.336Z,19.02
2023-05-30T21:51:12.509Z,18.89
2023-05-30T21:53:41.653Z,19.04
2023-05-30T21:56:11.203Z,19.24
2023-05-30T21:58:40.847Z,19.60
2023-05-30T22:01:10.114Z,19.90
2023-05-30T22:03:39.707Z,20.27
2023-05-30T22:06:09.153Z,20.62
2023-05-30T22:11:38.932Z,21.19
2023-05-30T22:14:08.263Z,21.44
2023-05-30T22:16:37.431Z,21.68
2023-05-30T22:19:07.081Z,21.94
2023-05-30T22:21:48.027Z,22.21
2023-05-30T22:24:25.084Z,22.43
2023-05-30T22:26:54.442Z,22.64
2023-05-30T22:29:23.658Z,22.83
2023-05-30T22:31:53.894Z,23.03
2023-05-30T22:34:23.077Z,23.20
2023-05-30T22:36:52.352Z,23.41
2023-05-30T22:39:21.504Z,23.62
2023-05-30T22:41:50.993Z,23.73
2023-05-30T22:44:20.554Z,23.85
2023-05-30T22:46:49.871Z,24.01
2023-05-30T22:49:35.963Z,24.22
2023-05-30T22:52:05.698Z,24.53
2023-05-30T22:54:35.032Z,24.80
2023-05-30T22:57:04.390Z,25.10
2023-05-30T22:59:36.122Z,25.78
2023-05-30T23:02:05.965Z,26.50
2023-05-30T23:04:36.540Z,27.03
2023-05-30T23:07:06.629Z,27.48
2023-05-30T23:09:36.483Z,27.73
2023-05-30T23:12:06.681Z,27.95
2023-05-30T23:14:35.997Z,28.00
2023-05-30T23:17:05.901Z,28.00
2023-05-30T23:19:35.597Z,28.07
2023-05-30T23:22:11.440Z,28.20
2023-05-30T23:24:41.151Z,28.32
2023-05-30T23:27:10.575Z,28.30
2023-05-30T23:29:39.958Z,28.46
2023-05-30T23:32:10.070Z,28.62
2023-05-30T23:34:39.885Z,28.69
2023-05-30T23:37:10.165Z,28.88
2023-05-30T23:39:40.157Z,29.05
2023-05-30T23:42:10.159Z,29.14
2023-05-30T23:44:39.984Z,29.25
2023-05-30T23:47:10.023Z,29.38
2023-05-30T23:49:40.180Z,29.49
2023-05-30T23:52:10.338Z,29.66
2023-05-30T23:54:39.667Z,29.77
2023-05-30T23:57:13.812Z,29.96
2023-05-30T23:59:43.395Z,30.06
